sensor_id;sensor_type;location;lat;lon;timestamp;pressure;altitude;pressure_sealevel;temperature;humidity
71194;BME280;58903;47.210;8.618;2023-04-05T00:01:35;94437.66;;;27.02;38.65
71194;BME280;58903;47.210;8.618;2023-04-05T00:04:03;94426.38;;;27.00;38.75
71194;BME280;58903;47.210;8.618;2023-04-05T00:06:32;94427.63;;;26.99;38.87
71194;BME280;58903;47.210;8.618;2023-04-05T00:09:02;94429.16;;;27.00;38.81
71194;BME280;58903;47.210;8.618;2023-04-05T00:11:31;94421.88;;;26.97;38.74
71194;BME280;58903;47.210;8.618;2023-04-05T00:14:09;94419.59;;;27.01;38.66
71194;BME280;58903;47.210;8.618;2023-04-05T00:16:40;94424.88;;;26.99;38.66
71194;BME280;58903;47.210;8.618;2023-04-05T00:19:18;94420.41;;;26.96;38.94
71194;BME280;58903;47.210;8.618;2023-04-05T00:22:22;94418.41;;;26.97;38.73
71194;BME280;58903;47.210;8.618;2023-04-05T00:25:08;94418.41;;;26.97;38.75
71194;BME280;58903;47.210;8.618;2023-04-05T00:27:45;94413.38;;;26.95;38.98
71194;BME280;58903;47.210;8.618;2023-04-05T00:30:13;94418.41;;;26.97;38.82
71194;BME280;58903;47.210;8.618;2023-04-05T00:32:55;94407.88;;;26.95;38.29
71194;BME280;58903;47.210;8.618;2023-04-05T00:35:28;94398.84;;;26.95;38.90
71194;BME280;58903;47.210;8.618;2023-04-05T00:38:08;94402.13;;;26.93;38.81
71194;BME280;58903;47.210;8.618;2023-04-05T00:40:41;94399.34;;;26.93;38.76
71194;BME280;58903;47.210;8.618;2023-04-05T00:43:21;94395.84;;;26.92;38.91
71194;BME280;58903;47.210;8.618;2023-04-05T00:46:03;94397.34;;;26.94;38.77
71194;BME280;58903;47.210;8.618;2023-04-05T00:48:37;94397.34;;;26.94;39.10
71194;BME280;58903;47.210;8.618;2023-04-05T00:51:10;94393.84;;;26.93;38.68
71194;BME280;58903;47.210;8.618;2023-04-05T00:53:46;94388.31;;;26.93;38.63
71194;BME280;58903;47.210;8.618;2023-04-05T00:56:23;94390.09;;;26.90;38.48
71194;BME280;58903;47.210;8.618;2023-04-05T00:58:51;94389.38;;;26.90;39.06
71194;BME280;58903;47.210;8.618;2023-04-05T01:01:20;94386.63;;;26.90;38.59
71194;BME280;58903;47.210;8.618;2023-04-05T01:03:58;94383.09;;;26.89;38.64
71194;BME280;58903;47.210;8.618;2023-04-05T01:09:58;94376.81;;;26.89;38.49
71194;BME280;58903;47.210;8.618;2023-04-05T01:12:37;94374.59;;;26.87;38.60
71194;BME280;58903;47.210;8.618;2023-04-05T01:15:20;94376.81;;;26.89;38.64
71194;BME280;58903;47.210;8.618;2023-04-05T01:17:57;94369.06;;;26.87;38.97
71194;BME280;58903;47.210;8.618;2023-04-05T01:20:33;94361.59;;;26.82;38.56
71194;BME280;58903;47.210;8.618;2023-04-05T01:23:25;94357.84;;;26.80;38.84
71194;BME280;58903;47.210;8.618;2023-04-05T01:32:37;94357.19;;;26.74;39.46
71194;BME280;58903;47.210;8.618;2023-04-05T01:38:23;94350.97;;;26.68;39.14
71194;BME280;58903;47.210;8.618;2023-04-05T01:41:21;94358.72;;;26.69;39.14
71194;BME280;58903;47.210;8.618;2023-04-05T01:44:00;94353.50;;;26.66;39.50
71194;BME280;58903;47.210;8.618;2023-04-05T01:46:45;94355.28;;;26.63;39.17
71194;BME280;58903;47.210;8.618;2023-04-05T01:49:13;94355.28;;;26.63;39.09
71194;BME280;58903;47.210;8.618;2023-04-05T01:52:03;94357.56;;;26.59;39.23
71194;BME280;58903;47.210;8.618;2023-04-05T01:54:31;94356.31;;;26.60;39.21
71194;BME280;58903;47.210;8.618;2023-04-05T01:56:59;94350.50;;;26.64;39.71
71194;BME280;58903;47.210;8.618;2023-04-05T01:59:35;94348.78;;;26.61;39.84
71194;BME280;58903;47.210;8.618;2023-04-05T02:02:39;94344.28;;;26.58;39.52
71194;BME280;58903;47.210;8.618;2023-04-05T02:05:09;94341.81;;;26.54;39.93
71194;BME280;58903;47.210;8.618;2023-04-05T02:07:37;94348.09;;;26.55;39.94
71194;BME280;58903;47.210;8.618;2023-04-05T02:10:10;94345.13;;;26.53;39.50
71194;BME280;58903;47.210;8.618;2023-04-05T02:12:38;94342.84;;;26.51;39.72
71194;BME280;58903;47.210;8.618;2023-04-05T02:15:05;94341.91;;;26.49;39.28
71194;BME280;58903;47.210;8.618;2023-04-05T02:17:40;94345.69;;;26.46;40.02
71194;BME280;58903;47.210;8.618;2023-04-05T02:20:13;94334.66;;;26.46;39.22
71194;BME280;58903;47.210;8.618;2023-04-05T02:22:41;94334.41;;;26.44;40.02
71194;BME280;58903;47.210;8.618;2023-04-05T02:25:12;94337.94;;;26.44;39.85
71194;BME280;58903;47.210;8.618;2023-04-05T02:27:47;94335.66;;;26.43;40.04
71194;BME280;58903;47.210;8.618;2023-04-05T02:30:30;94334.94;;;26.42;39.31
71194;BME280;58903;47.210;8.618;2023-04-05T02:32:57;94328.91;;;26.44;39.96
71194;BME280;58903;47.210;8.618;2023-04-05T02:35:24;94322.94;;;26.40;40.01
71194;BME280;58903;47.210;8.618;2023-04-05T02:37:51;94327.19;;;26.41;40.14
71194;BME280;58903;47.210;8.618;2023-04-05T02:40:17;94327.69;;;26.39;39.79
71194;BME280;58903;47.210;8.618;2023-04-05T02:42:45;94322.47;;;26.36;39.71
71194;BME280;58903;47.210;8.618;2023-04-05T02:45:10;94315.47;;;26.35;39.67
71194;BME280;58903;47.210;8.618;2023-04-05T02:47:36;94310.69;;;26.35;39.59
71194;BME280;58903;47.210;8.618;2023-04-05T02:50:05;94311.50;;;26.30;40.33
71194;BME280;58903;47.210;8.618;2023-04-05T02:52:35;94311.22;;;26.34;40.09
71194;BME280;58903;47.210;8.618;2023-04-05T02:55:18;94308.25;;;26.32;39.76
71194;BME280;58903;47.210;8.618;2023-04-05T02:57:57;94308.25;;;26.32;39.75
71194;BME280;58903;47.210;8.618;2023-04-05T03:00:41;94312.69;;;26.35;40.78
71194;BME280;58903;47.210;8.618;2023-04-05T03:03:11;94306.44;;;26.34;40.08
71194;BME280;58903;47.210;8.618;2023-04-05T03:05:45;94301.97;;;26.31;40.29
71194;BME280;58903;47.210;8.618;2023-04-05T03:08:19;94302.19;;;26.33;40.34
71194;BME280;58903;47.210;8.618;2023-04-05T03:10:53;94297.22;;;26.32;39.66
71194;BME280;58903;47.210;8.618;2023-04-05T03:13:22;94293.69;;;26.31;40.59
71194;BME280;58903;47.210;8.618;2023-04-05T03:16:09;94291.69;;;26.32;39.72
71194;BME280;58903;47.210;8.618;2023-04-05T03:18:39;94294.94;;;26.30;40.41
71194;BME280;58903;47.210;8.618;2023-04-05T03:21:06;94299.72;;;26.30;40.50
71194;BME280;58903;47.210;8.618;2023-04-05T03:23:36;94289.22;;;26.28;40.45
71194;BME280;58903;47.210;8.618;2023-04-05T03:26:04;94293.25;;;26.27;40.16
71194;BME280;58903;47.210;8.618;2023-04-05T03:28:31;94290.72;;;26.29;40.03
71194;BME280;58903;47.210;8.618;2023-04-05T03:30:57;94282.44;;;26.29;40.10
71194;BME280;58903;47.210;8.618;2023-04-05T03:33:25;94287.44;;;26.31;39.91
71194;BME280;58903;47.210;8.618;2023-04-05T03:35:54;94280.50;;;26.24;39.51
71194;BME280;58903;47.210;8.618;2023-04-05T03:38:24;94285.69;;;26.28;40.17
71194;BME280;58903;47.210;8.618;2023-04-05T03:41:20;94288.47;;;26.28;39.96
71194;BME280;58903;47.210;8.618;2023-04-05T03:43:47;94284.44;;;26.29;40.39
71194;BME280;58903;47.210;8.618;2023-04-05T03:46:45;94280.19;;;26.28;39.96
71194;BME280;58903;47.210;8.618;2023-04-05T03:49:11;94278.94;;;26.29;39.57
71194;BME280;58903;47.210;8.618;2023-04-05T03:51:37;94282.44;;;26.29;39.65
71194;BME280;58903;47.210;8.618;2023-04-05T03:54:03;94278.19;;;26.28;39.62
71194;BME280;58903;47.210;8.618;2023-04-05T03:56:29;94273.19;;;26.27;40.32
71194;BME280;58903;47.210;8.618;2023-04-05T03:58:55;94275.72;;;26.25;39.63
71194;BME280;58903;47.210;8.618;2023-04-05T04:01:23;94274.97;;;26.24;40.35
71194;BME280;58903;47.210;8.618;2023-04-05T04:03:51;94282.50;;;26.24;40.09
71194;BME280;58903;47.210;8.618;2023-04-05T04:06:19;94281.47;;;26.27;39.82
71194;BME280;58903;47.210;8.618;2023-04-05T04:08:46;94278.97;;;26.23;39.76
71194;BME280;58903;47.210;8.618;2023-04-05T04:11:12;94277.72;;;26.24;39.82
71194;BME280;58903;47.210;8.618;2023-04-05T04:13:38;94282.50;;;26.24;40.21
71194;BME280;58903;47.210;8.618;2023-04-05T04:16:04;94286.97;;;26.27;39.57
71194;BME280;58903;47.210;8.618;2023-04-05T04:18:30;94284.97;;;26.27;39.96
71194;BME280;58903;47.210;8.618;2023-04-05T04:20:57;94286.44;;;26.28;40.19
71194;BME280;58903;47.210;8.618;2023-04-05T04:23:25;94277.44;;;26.28;39.74
71194;BME280;58903;47.210;8.618;2023-04-05T04:25:51;94286.44;;;26.28;39.74
71194;BME280;58903;47.210;8.618;2023-04-05T04:28:20;94277.97;;;26.26;40.30
71194;BME280;58903;47.210;8.618;2023-04-05T04:30:46;94278.72;;;26.27;39.82
71194;BME280;58903;47.210;8.618;2023-04-05T04:33:14;94274.22;;;26.24;40.20
71194;BME280;58903;47.210;8.618;2023-04-05T04:35:42;94279.97;;;26.26;39.92
71194;BME280;58903;47.210;8.618;2023-04-05T04:38:13;94282.72;;;26.26;39.86
71194;BME280;58903;47.210;8.618;2023-04-05T04:40:45;94276.97;;;26.24;40.16
71194;BME280;58903;47.210;8.618;2023-04-05T04:43:13;94279.72;;;26.24;40.11
71194;BME280;58903;47.210;8.618;2023-04-05T04:45:43;94281.00;;;26.23;39.64
71194;BME280;58903;47.210;8.618;2023-04-05T04:48:17;94275.28;;;26.21;39.74
71194;BME280;58903;47.210;8.618;2023-04-05T04:50:49;94279.50;;;26.22;40.24
71194;BME280;58903;47.210;8.618;2023-04-05T04:53:28;94275.03;;;26.19;39.98
71194;BME280;58903;47.210;8.618;2023-04-05T04:56:05;94276.97;;;26.24;40.23
71194;BME280;58903;47.210;8.618;2023-04-05T04:58:46;94276.22;;;26.23;39.68
71194;BME280;58903;47.210;8.618;2023-04-05T05:01:12;94283.44;;;26.32;39.37
71194;BME280;58903;47.210;8.618;2023-04-05T05:03:46;94276.34;;;26.36;39.81
71194;BME280;58903;47.210;8.618;2023-04-05T05:06:24;94273.06;;;26.38;40.02
71194;BME280;58903;47.210;8.618;2023-04-05T05:08:54;94279.31;;;26.38;39.63
71194;BME280;58903;47.210;8.618;2023-04-05T05:11:29;94280.28;;;26.41;39.82
71194;BME280;58903;47.210;8.618;2023-04-05T05:14:06;94273.53;;;26.42;39.72
71194;BME280;58903;47.210;8.618;2023-04-05T05:16:41;94280.75;;;26.45;39.64
71194;BME280;58903;47.210;8.618;2023-04-05T05:19:19;94277.53;;;26.41;39.48
71194;BME280;58903;47.210;8.618;2023-04-05T05:21:49;94275.31;;;26.39;40.19
71194;BME280;58903;47.210;8.618;2023-04-05T05:24:19;94281.34;;;26.38;39.49
71194;BME280;58903;47.210;8.618;2023-04-05T05:26:47;94279.31;;;26.38;39.81
71194;BME280;58903;47.210;8.618;2023-04-05T05:29:19;94288.63;;;26.35;39.53
71194;BME280;58903;47.210;8.618;2023-04-05T05:31:55;94278.59;;;26.38;39.84
71194;BME280;58903;47.210;8.618;2023-04-05T05:34:31;94284.31;;;26.40;39.93
71194;BME280;58903;47.210;8.618;2023-04-05T05:37:04;94292.03;;;26.47;39.23
71194;BME280;58903;47.210;8.618;2023-04-05T05:39:40;94279.94;;;26.50;39.68
71194;BME280;58903;47.210;8.618;2023-04-05T05:42:15;94295.69;;;26.55;38.63
71194;BME280;58903;47.210;8.618;2023-04-05T05:44:51;94300.22;;;26.52;38.75
71194;BME280;58903;47.210;8.618;2023-04-05T05:47:28;94287.69;;;26.51;38.19
71194;BME280;58903;47.210;8.618;2023-04-05T05:50:08;94295.16;;;26.56;38.67
71194;BME280;58903;47.210;8.618;2023-04-05T05:52:41;94293.38;;;26.59;38.72
71194;BME280;58903;47.210;8.618;2023-04-05T05:55:07;94292.41;;;26.56;38.32
71194;BME280;58903;47.210;8.618;2023-04-05T05:57:36;94296.88;;;26.59;37.58
71194;BME280;58903;47.210;8.618;2023-04-05T06:00:21;94291.88;;;26.58;38.37
71194;BME280;58903;47.210;8.618;2023-04-05T06:02:49;94285.63;;;26.57;38.34
71194;BME280;58903;47.210;8.618;2023-04-05T06:05:16;94293.38;;;26.59;38.88
71194;BME280;58903;47.210;8.618;2023-04-05T06:07:43;94300.91;;;26.58;37.94
71194;BME280;58903;47.210;8.618;2023-04-05T06:10:20;94306.41;;;26.58;38.53
71194;BME280;58903;47.210;8.618;2023-04-05T06:12:49;94309.94;;;26.59;37.60
71194;BME280;58903;47.210;8.618;2023-04-05T06:15:47;94310.69;;;26.59;37.96
71194;BME280;58903;47.210;8.618;2023-04-05T06:18:26;94313.94;;;26.58;37.65
71194;BME280;58903;47.210;8.618;2023-04-05T06:21:18;94308.91;;;26.62;37.57
71194;BME280;58903;47.210;8.618;2023-04-05T06:24:21;94314.19;;;26.60;37.55
71194;BME280;58903;47.210;8.618;2023-04-05T06:27:03;94316.69;;;26.58;37.88
71194;BME280;58903;47.210;8.618;2023-04-05T06:29:43;94316.47;;;26.56;38.15
71194;BME280;58903;47.210;8.618;2023-04-05T06:32:18;94311.25;;;26.52;37.71
71194;BME280;58903;47.210;8.618;2023-04-05T06:34:54;94310.97;;;26.56;38.22
71194;BME280;58903;47.210;8.618;2023-04-05T06:37:52;94312.69;;;26.59;38.09
71194;BME280;58903;47.210;8.618;2023-04-05T06:40:47;94314.69;;;26.58;38.22
71194;BME280;58903;47.210;8.618;2023-04-05T06:43:24;94314.69;;;26.58;37.60
71194;BME280;58903;47.210;8.618;2023-04-05T06:46:10;94315.22;;;26.57;38.45
71194;BME280;58903;47.210;8.618;2023-04-05T06:48:37;94315.00;;;26.55;38.51
71194;BME280;58903;47.210;8.618;2023-04-05T06:51:04;94316.56;;;26.50;38.39
71194;BME280;58903;47.210;8.618;2023-04-05T06:53:39;94318.56;;;26.50;38.29
71194;BME280;58903;47.210;8.618;2023-04-05T06:56:06;94325.13;;;26.47;37.73
71194;BME280;58903;47.210;8.618;2023-04-05T07:01:51;94319.59;;;26.47;38.37
71194;BME280;58903;47.210;8.618;2023-04-05T07:04:17;94317.34;;;26.45;38.56
71194;BME280;58903;47.210;8.618;2023-04-05T07:06:50;94325.13;;;26.47;38.02
71194;BME280;58903;47.210;8.618;2023-04-05T07:09:16;94320.06;;;26.51;38.00
71194;BME280;58903;47.210;8.618;2023-04-05T07:15:04;94326.56;;;26.53;38.46
71194;BME280;58903;47.210;8.618;2023-04-05T07:18:07;94321.09;;;26.48;38.52
71194;BME280;58903;47.210;8.618;2023-04-05T07:20:47;94326.16;;;26.44;38.38
71194;BME280;58903;47.210;8.618;2023-04-05T07:23:27;94328.38;;;26.45;38.36
71194;BME280;58903;47.210;8.618;2023-04-05T07:25:54;94324.63;;;26.43;37.97
71194;BME280;58903;47.210;8.618;2023-04-05T07:28:32;94326.44;;;26.40;38.23
71194;BME280;58903;47.210;8.618;2023-04-05T07:31:02;94318.66;;;26.39;38.25
71194;BME280;58903;47.210;8.618;2023-04-05T07:33:28;94322.19;;;26.39;38.52
71194;BME280;58903;47.210;8.618;2023-04-05T07:36:01;94322.94;;;26.40;38.16
71194;BME280;58903;47.210;8.618;2023-04-05T07:38:36;94323.44;;;26.38;38.71
71194;BME280;58903;47.210;8.618;2023-04-05T07:41:09;94331.22;;;26.40;38.69
71194;BME280;58903;47.210;8.618;2023-04-05T07:44:05;94326.94;;;26.39;39.07
71194;BME280;58903;47.210;8.618;2023-04-05T07:46:50;94322.47;;;26.36;39.05
71194;BME280;58903;47.210;8.618;2023-04-05T07:49:50;94336.72;;;26.40;38.83
71194;BME280;58903;47.210;8.618;2023-04-05T07:52:24;94325.47;;;26.38;38.33
71194;BME280;58903;47.210;8.618;2023-04-05T07:54:54;94331.22;;;26.40;38.68
71194;BME280;58903;47.210;8.618;2023-04-05T07:57:31;94338.22;;;26.41;38.45
71194;BME280;58903;47.210;8.618;2023-04-05T07:59:59;94329.22;;;26.40;38.93
71194;BME280;58903;47.210;8.618;2023-04-05T08:02:35;94330.47;;;26.39;38.39
71194;BME280;58903;47.210;8.618;2023-04-05T08:05:16;94327.47;;;26.37;38.54
71194;BME280;58903;47.210;8.618;2023-04-05T08:07:57;94332.69;;;26.41;38.14
71194;BME280;58903;47.210;8.618;2023-04-05T08:10:37;94326.44;;;26.40;39.06
71194;BME280;58903;47.210;8.618;2023-04-05T08:13:04;94332.69;;;26.41;38.77
71194;BME280;58903;47.210;8.618;2023-04-05T08:15:56;94334.41;;;26.44;38.60
71194;BME280;58903;47.210;8.618;2023-04-05T08:18:31;94330.91;;;26.43;38.33
71194;BME280;58903;47.210;8.618;2023-04-05T08:21:32;94332.41;;;26.44;39.11
71194;BME280;58903;47.210;8.618;2023-04-05T08:24:10;94330.91;;;26.43;39.10
71194;BME280;58903;47.210;8.618;2023-04-05T08:27:06;94335.66;;;26.43;38.57
71194;BME280;58903;47.210;8.618;2023-04-05T08:29:57;94340.16;;;26.46;38.44
71194;BME280;58903;47.210;8.618;2023-04-05T08:32:45;94335.56;;;26.54;38.48
71194;BME280;58903;47.210;8.618;2023-04-05T08:35:43;94332.00;;;26.59;38.27
71194;BME280;58903;47.210;8.618;2023-04-05T08:38:12;94335.22;;;26.63;37.70
71194;BME280;58903;47.210;8.618;2023-04-05T08:40:50;94333.19;;;26.63;36.94
71194;BME280;58903;47.210;8.618;2023-04-05T08:46:16;94344.75;;;26.62;37.72
71194;BME280;58903;47.210;8.618;2023-04-05T08:48:58;94344.00;;;26.61;37.74
71194;BME280;58903;47.210;8.618;2023-04-05T08:51:25;94339.97;;;26.62;37.57
71194;BME280;58903;47.210;8.618;2023-04-05T08:53:59;94338.94;;;26.65;37.77
71194;BME280;58903;47.210;8.618;2023-04-05T08:56:32;94346.47;;;26.65;37.66
71194;BME280;58903;47.210;8.618;2023-04-05T08:59:08;94350.50;;;26.64;37.33
71194;BME280;58903;47.210;8.618;2023-04-05T09:01:44;94345.44;;;26.68;37.81
71194;BME280;58903;47.210;8.618;2023-04-05T09:04:17;94355.94;;;26.69;37.85
71194;BME280;58903;47.210;8.618;2023-04-05T09:06:48;94337.69;;;26.66;37.47
71194;BME280;58903;47.210;8.618;2023-04-05T09:09:19;94344.16;;;26.69;37.27
71194;BME280;58903;47.210;8.618;2023-04-05T09:11:47;94347.44;;;26.67;37.89
71194;BME280;58903;47.210;8.618;2023-04-05T09:14:13;94354.25;;;26.66;37.62
71194;BME280;58903;47.210;8.618;2023-04-05T09:16:42;94349.22;;;26.65;37.79
71194;BME280;58903;47.210;8.618;2023-04-05T09:19:09;94354.75;;;26.65;37.79
71194;BME280;58903;47.210;8.618;2023-04-05T09:22:03;94357.72;;;26.67;38.07
71194;BME280;58903;47.210;8.618;2023-04-05T09:24:49;94357.50;;;26.65;37.87
71194;BME280;58903;47.210;8.618;2023-04-05T09:27:30;94355.28;;;26.63;38.05
71194;BME280;58903;47.210;8.618;2023-04-05T09:30:21;94349.22;;;26.65;38.14
71194;BME280;58903;47.210;8.618;2023-04-05T09:32:50;94352.97;;;26.67;38.18
71194;BME280;58903;47.210;8.618;2023-04-05T09:35:35;94360.72;;;26.69;38.55
71194;BME280;58903;47.210;8.618;2023-04-05T09:38:08;94351.72;;;26.68;38.78
71194;BME280;58903;47.210;8.618;2023-04-05T09:40:52;94359.47;;;26.70;38.34
71194;BME280;58903;47.210;8.618;2023-04-05T09:43:45;94355.44;;;26.71;38.05
71194;BME280;58903;47.210;8.618;2023-04-05T09:46:37;94354.44;;;26.74;38.45
71194;BME280;58903;47.210;8.618;2023-04-05T09:49:13;94360.69;;;26.74;38.52
71194;BME280;58903;47.210;8.618;2023-04-05T09:52:01;94355.94;;;26.75;37.93
71194;BME280;58903;47.210;8.618;2023-04-05T09:54:28;94356.44;;;26.73;38.30
71194;BME280;58903;47.210;8.618;2023-04-05T09:57:08;94351.91;;;26.76;38.04
71194;BME280;58903;47.210;8.618;2023-04-05T09:59:35;94365.16;;;26.77;38.23
71194;BME280;58903;47.210;8.618;2023-04-05T10:02:04;94362.94;;;26.76;38.66
71194;BME280;58903;47.210;8.618;2023-04-05T10:04:42;94364.44;;;26.77;38.19
71194;BME280;58903;47.210;8.618;2023-04-05T10:07:20;94360.41;;;26.78;38.73
71194;BME280;58903;47.210;8.618;2023-04-05T10:13:29;94361.38;;;26.80;38.75
71194;BME280;58903;47.210;8.618;2023-04-05T10:16:12;94367.88;;;26.83;38.00
71194;BME280;58903;47.210;8.618;2023-04-05T10:18:49;94363.84;;;26.84;38.35
71194;BME280;58903;47.210;8.618;2023-04-05T10:21:40;94360.34;;;26.83;38.25
71194;BME280;58903;47.210;8.618;2023-04-05T10:27:46;94371.31;;;26.89;38.23
71194;BME280;58903;47.210;8.618;2023-04-05T10:33:25;94367.53;;;26.92;37.61
71194;BME280;58903;47.210;8.618;2023-04-05T10:39:03;94367.00;;;26.94;37.78
71194;BME280;58903;47.210;8.618;2023-04-05T10:41:46;94371.75;;;26.93;38.29
71194;BME280;58903;47.210;8.618;2023-04-05T10:44:13;94365.75;;;26.95;37.54
71194;BME280;58903;47.210;8.618;2023-04-05T10:46:57;94369.97;;;26.96;38.25
71194;BME280;58903;47.210;8.618;2023-04-05T10:52:56;94366.69;;;26.97;38.19
71194;BME280;58903;47.210;8.618;2023-04-05T10:55:34;94364.69;;;26.98;38.14
71194;BME280;58903;47.210;8.618;2023-04-05T11:01:09;94356.63;;;27.00;38.42
71194;BME280;58903;47.210;8.618;2023-04-05T11:11:51;94366.09;;;27.04;38.59
71194;BME280;58903;47.210;8.618;2023-04-05T11:14:43;94367.59;;;27.05;38.30
71194;BME280;58903;47.210;8.618;2023-04-05T11:17:30;94357.53;;;27.08;38.48
71194;BME280;58903;47.210;8.618;2023-04-05T11:20:04;94361.03;;;27.08;38.75
71194;BME280;58903;47.210;8.618;2023-04-05T11:22:53;94358.00;;;27.12;38.33
71194;BME280;58903;47.210;8.618;2023-04-05T11:25:28;94350.44;;;27.12;38.35
71194;BME280;58903;47.210;8.618;2023-04-05T11:28:07;94349.19;;;27.13;37.75
71194;BME280;58903;47.210;8.618;2023-04-05T11:30:54;94347.91;;;27.14;38.34
71194;BME280;58903;47.210;8.618;2023-04-05T11:36:37;94345.38;;;27.16;38.40
71194;BME280;58903;47.210;8.618;2023-04-05T11:42:27;94335.81;;;27.17;38.20
71194;BME280;58903;47.210;8.618;2023-04-05T11:45:30;94337.31;;;27.18;38.18
71194;BME280;58903;47.210;8.618;2023-04-05T11:48:22;94340.59;;;27.17;38.61
71194;BME280;58903;47.210;8.618;2023-04-05T11:54:04;94333.00;;;27.23;38.47
71194;BME280;58903;47.210;8.618;2023-04-05T11:56:33;94328.19;;;27.23;37.78
71194;BME280;58903;47.210;8.618;2023-04-05T12:02:02;94328.94;;;27.24;38.35
71194;BME280;58903;47.210;8.618;2023-04-05T12:04:31;94322.97;;;27.20;37.99
71194;BME280;58903;47.210;8.618;2023-04-05T12:07:16;94325.22;;;27.21;39.36
71194;BME280;58903;47.210;8.618;2023-04-05T12:10:07;94332.25;;;27.22;38.78
71194;BME280;58903;47.210;8.618;2023-04-05T12:12:41;94329.69;;;27.24;38.69
71194;BME280;58903;47.210;8.618;2023-04-05T12:15:17;94318.44;;;27.22;38.93
71194;BME280;58903;47.210;8.618;2023-04-05T12:18:00;94326.19;;;27.24;38.42
71194;BME280;58903;47.210;8.618;2023-04-05T12:20:29;94313.19;;;27.19;38.86
71194;BME280;58903;47.210;8.618;2023-04-05T12:23:13;94312.25;;;27.16;38.75
71194;BME280;58903;47.210;8.618;2023-04-05T12:25:39;94305.66;;;27.19;38.63
71194;BME280;58903;47.210;8.618;2023-04-05T12:28:16;94312.91;;;27.22;38.62
71194;BME280;58903;47.210;8.618;2023-04-05T12:30:56;94305.88;;;27.21;39.14
71194;BME280;58903;47.210;8.618;2023-04-05T12:33:41;94309.09;;;27.25;38.81
71194;BME280;58903;47.210;8.618;2023-04-05T12:36:17;94306.31;;;27.25;39.36
71194;BME280;58903;47.210;8.618;2023-04-05T12:39:20;94303.81;;;27.27;39.20
71194;BME280;58903;47.210;8.618;2023-04-05T12:42:02;94306.03;;;27.29;39.56
71194;BME280;58903;47.210;8.618;2023-04-05T12:44:42;94310.81;;;27.28;39.37
71194;BME280;58903;47.210;8.618;2023-04-05T12:47:09;94301.06;;;27.27;39.42
71194;BME280;58903;47.210;8.618;2023-04-05T12:50:08;94302.22;;;27.32;39.77
71194;BME280;58903;47.210;8.618;2023-04-05T12:55:23;94294.25;;;27.28;39.52
71194;BME280;58903;47.210;8.618;2023-04-05T12:58:02;94303.72;;;27.33;39.53
71194;BME280;58903;47.210;8.618;2023-04-05T13:00:30;94291.16;;;27.32;39.56
71194;BME280;58903;47.210;8.618;2023-04-05T13:03:15;94286.63;;;27.34;39.75
71194;BME280;58903;47.210;8.618;2023-04-05T13:05:59;94288.38;;;27.37;39.70
71194;BME280;58903;47.210;8.618;2023-04-05T13:08:35;94292.09;;;27.40;39.41
71194;BME280;58903;47.210;8.618;2023-04-05T13:11:10;94284.03;;;27.42;39.26
71194;BME280;58903;47.210;8.618;2023-04-05T13:13:45;94283.50;;;27.43;39.70
71194;BME280;58903;47.210;8.618;2023-04-05T13:16:19;94279.69;;;27.46;39.67
71194;BME280;58903;47.210;8.618;2023-04-05T13:19:13;94285.66;;;27.50;39.75
71194;BME280;58903;47.210;8.618;2023-04-05T13:21:40;94281.59;;;27.51;39.76
71194;BME280;58903;47.210;8.618;2023-04-05T13:24:09;94270.03;;;27.53;39.93
71194;BME280;58903;47.210;8.618;2023-04-05T13:26:37;94272.06;;;27.52;39.98
71194;BME280;58903;47.210;8.618;2023-04-05T13:29:03;94277.59;;;27.52;40.27
71194;BME280;58903;47.210;8.618;2023-04-05T13:31:57;94271.00;;;27.55;39.83
71194;BME280;58903;47.210;8.618;2023-04-05T13:34:39;94270.69;;;27.59;40.07
71194;BME280;58903;47.210;8.618;2023-04-05T13:37:15;94276.44;;;27.61;39.74
71194;BME280;58903;47.210;8.618;2023-04-05T13:39:55;94276.34;;;27.67;39.73
71194;BME280;58903;47.210;8.618;2023-04-05T13:42:30;94270.81;;;27.67;38.71
71194;BME280;58903;47.210;8.618;2023-04-05T13:44:57;94268.81;;;27.67;38.72
71194;BME280;58903;47.210;8.618;2023-04-05T13:47:24;94267.22;;;27.72;38.94
71194;BME280;58903;47.210;8.618;2023-04-05T13:49:52;94265.75;;;27.71;38.99
71194;BME280;58903;47.210;8.618;2023-04-05T13:52:28;94259.69;;;27.72;39.31
71194;BME280;58903;47.210;8.618;2023-04-05T13:55:11;94264.16;;;27.75;39.20
71194;BME280;58903;47.210;8.618;2023-04-05T13:57:37;94249.28;;;27.78;39.01
71194;BME280;58903;47.210;8.618;2023-04-05T14:00:14;94251.00;;;27.81;39.18
71194;BME280;58903;47.210;8.618;2023-04-05T14:03:00;94251.19;;;27.83;39.08
71194;BME280;58903;47.210;8.618;2023-04-05T14:05:26;94247.16;;;27.84;38.73
71194;BME280;58903;47.210;8.618;2023-04-05T14:07:52;94237.59;;;27.85;38.93
71194;BME280;58903;47.210;8.618;2023-04-05T14:10:18;94244.59;;;27.86;39.60
71194;BME280;58903;47.210;8.618;2023-04-05T14:12:46;94241.31;;;27.88;39.22
71194;BME280;58903;47.210;8.618;2023-04-05T14:15:25;94234.50;;;27.89;38.90
71194;BME280;58903;47.210;8.618;2023-04-05T14:18:11;94238.97;;;27.92;38.96
71194;BME280;58903;47.210;8.618;2023-04-05T14:20:50;94236.44;;;27.94;38.98
71194;BME280;58903;47.210;8.618;2023-04-05T14:23:18;94236.66;;;27.96;39.03
71194;BME280;58903;47.210;8.618;2023-04-05T14:25:54;94232.63;;;27.97;39.09
71194;BME280;58903;47.210;8.618;2023-04-05T14:28:23;94232.88;;;27.99;39.10
71194;BME280;58903;47.210;8.618;2023-04-05T14:30:56;94234.56;;;28.02;39.16
71194;BME280;58903;47.210;8.618;2023-04-05T14:33:25;94231.28;;;28.03;39.24
71194;BME280;58903;47.210;8.618;2023-04-05T14:36:05;94225.94;;;28.05;39.28
71194;BME280;58903;47.210;8.618;2023-04-05T14:38:43;94226.16;;;28.07;39.28
71194;BME280;58903;47.210;8.618;2023-04-05T14:41:21;94229.34;;;28.11;39.20
71194;BME280;58903;47.210;8.618;2023-04-05T14:43:49;94222.22;;;28.16;38.90
71194;BME280;58903;47.210;8.618;2023-04-05T14:46:29;94229.03;;;28.15;38.40
71194;BME280;58903;47.210;8.618;2023-04-05T14:48:57;94221.47;;;28.15;38.53
71194;BME280;58903;47.210;8.618;2023-04-05T14:52:02;94218.59;;;28.21;38.72